sensor_id;sensor_type;location;lat;lon;timestamp;P1;durP1;ratioP1;P2;durP2;ratioP2
27893;SDS011;15240;50.812;4.792;2023-08-21T00:01:24;8.37;;;2.93;;
27893;SDS011;15240;50.812;4.792;2023-08-21T00:03:50;9.73;;;3.57;;
27893;SDS011;15240;50.812;4.792;2023-08-21T00:06:16;8.30;;;3.10;;
27893;SDS011;15240;50.812;4.792;2023-08-21T00:08:43;6.57;;;3.20;;
27893;SDS011;15240;50.812;4.792;2023-08-21T00:11:09;11.43;;;3.27;;
27893;SDS011;15240;50.812;4.792;2023-08-21T00:13:35;9.37;;;3.10;;
27893;SDS011;15240;50.812;4.792;2023-08-21T00:16:01;8.87;;;3.57;;
27893;SDS011;15240;50.812;4.792;2023-08-21T00:18:27;5.83;;;2.83;;
27893;SDS011;15240;50.812;4.792;2023-08-21T00:20:53;8.97;;;3.33;;
27893;SDS011;15240;50.812;4.792;2023-08-21T00:23:20;11.70;;;3.30;;
27893;SDS011;15240;50.812;4.792;2023-08-21T00:25:46;8.00;;;3.23;;
27893;SDS011;15240;50.812;4.792;2023-08-21T00:28:12;5.33;;;3.03;;
27893;SDS011;15240;50.812;4.792;2023-08-21T00:30:38;10.13;;;3.60;;
27893;SDS011;15240;50.812;4.792;2023-08-21T00:33:04;14.33;;;3.50;;
27893;SDS011;15240;50.812;4.792;2023-08-21T00:35:31;8.00;;;3.50;;
27893;SDS011;15240;50.812;4.792;2023-08-21T00:37:57;7.20;;;3.13;;
27893;SDS011;15240;50.812;4.792;2023-08-21T00:40:23;8.40;;;3.10;;
27893;SDS011;15240;50.812;4.792;2023-08-21T00:42:49;7.77;;;2.90;;
27893;SDS011;15240;50.812;4.792;2023-08-21T00:45:15;9.77;;;3.50;;
27893;SDS011;15240;50.812;4.792;2023-08-21T00:47:42;7.40;;;2.97;;
27893;SDS011;15240;50.812;4.792;2023-08-21T00:50:08;8.07;;;3.77;;
27893;SDS011;15240;50.812;4.792;2023-08-21T00:52:36;9.47;;;3.57;;
27893;SDS011;15240;50.812;4.792;2023-08-21T00:55:04;10.17;;;3.33;;
27893;SDS011;15240;50.812;4.792;2023-08-21T00:57:30;7.40;;;3.07;;
27893;SDS011;15240;50.812;4.792;2023-08-21T00:59:57;8.90;;;3.20;;
27893;SDS011;15240;50.812;4.792;2023-08-21T01:02:23;9.47;;;3.13;;
27893;SDS011;15240;50.812;4.792;2023-08-21T01:04:49;9.53;;;3.60;;
27893;SDS011;15240;50.812;4.792;2023-08-21T01:07:15;6.37;;;3.30;;
27893;SDS011;15240;50.812;4.792;2023-08-21T01:09:45;6.53;;;3.23;;
27893;SDS011;15240;50.812;4.792;2023-08-21T01:15:00;9.93;;;3.23;;
27893;SDS011;15240;50.812;4.792;2023-08-21T01:17:31;9.67;;;3.53;;
27893;SDS011;15240;50.812;4.792;2023-08-21T01:19:59;7.43;;;2.63;;
27893;SDS011;15240;50.812;4.792;2023-08-21T01:22:26;8.30;;;3.60;;
27893;SDS011;15240;50.812;4.792;2023-08-21T01:24:53;11.13;;;3.47;;
27893;SDS011;15240;50.812;4.792;2023-08-21T01:27:20;8.33;;;3.13;;
27893;SDS011;15240;50.812;4.792;2023-08-21T01:29:46;6.57;;;3.00;;
27893;SDS011;15240;50.812;4.792;2023-08-21T01:32:19;9.07;;;3.20;;
27893;SDS011;15240;50.812;4.792;2023-08-21T01:34:48;7.77;;;3.70;;
27893;SDS011;15240;50.812;4.792;2023-08-21T01:37:16;10.30;;;3.80;;
27893;SDS011;15240;50.812;4.792;2023-08-21T01:39:43;7.93;;;2.93;;
27893;SDS011;15240;50.812;4.792;2023-08-21T01:42:09;8.13;;;3.43;;
27893;SDS011;15240;50.812;4.792;2023-08-21T01:44:35;7.83;;;3.27;;
27893;SDS011;15240;50.812;4.792;2023-08-21T01:47:01;8.73;;;3.00;;
27893;SDS011;15240;50.812;4.792;2023-08-21T01:49:27;9.13;;;3.50;;
27893;SDS011;15240;50.812;4.792;2023-08-21T01:51:53;8.50;;;3.37;;
27893;SDS011;15240;50.812;4.792;2023-08-21T01:54:19;10.23;;;3.20;;
27893;SDS011;15240;50.812;4.792;2023-08-21T01:56:45;7.70;;;2.87;;
27893;SDS011;15240;50.812;4.792;2023-08-21T01:59:11;10.20;;;3.43;;
27893;SDS011;15240;50.812;4.792;2023-08-21T02:01:37;8.30;;;2.83;;
27893;SDS011;15240;50.812;4.792;2023-08-21T02:04:04;8.87;;;3.20;;
27893;SDS011;15240;50.812;4.792;2023-08-21T02:06:30;9.20;;;3.03;;
27893;SDS011;15240;50.812;4.792;2023-08-21T02:08:56;9.23;;;3.17;;
27893;SDS011;15240;50.812;4.792;2023-08-21T02:11:22;8.80;;;3.70;;
27893;SDS011;15240;50.812;4.792;2023-08-21T02:13:48;9.03;;;3.33;;
27893;SDS011;15240;50.812;4.792;2023-08-21T02:16:15;9.10;;;2.90;;
27893;SDS011;15240;50.812;4.792;2023-08-21T02:18:41;8.00;;;3.20;;
27893;SDS011;15240;50.812;4.792;2023-08-21T02:21:07;9.07;;;3.30;;
27893;SDS011;15240;50.812;4.792;2023-08-21T02:23:33;9.03;;;3.40;;
27893;SDS011;15240;50.812;4.792;2023-08-21T02:25:59;6.53;;;3.47;;
27893;SDS011;15240;50.812;4.792;2023-08-21T02:28:25;7.47;;;3.17;;
27893;SDS011;15240;50.812;4.792;2023-08-21T02:30:51;7.97;;;3.23;;
27893;SDS011;15240;50.812;4.792;2023-08-21T02:33:17;10.50;;;3.40;;
27893;SDS011;15240;50.812;4.792;2023-08-21T02:35:43;11.03;;;3.70;;
27893;SDS011;15240;50.812;4.792;2023-08-21T02:38:09;5.47;;;3.17;;
27893;SDS011;15240;50.812;4.792;2023-08-21T02:40:35;7.60;;;3.47;;
27893;SDS011;15240;50.812;4.792;2023-08-21T02:43:02;7.30;;;3.37;;
27893;SDS011;15240;50.812;4.792;2023-08-21T02:45:28;11.77;;;3.83;;
27893;SDS011;15240;50.812;4.792;2023-08-21T02:47:54;7.40;;;3.50;;
27893;SDS011;15240;50.812;4.792;2023-08-21T02:50:20;8.37;;;3.50;;
27893;SDS011;15240;50.812;4.792;2023-08-21T02:52:47;10.03;;;3.83;;
27893;SDS011;15240;50.812;4.792;2023-08-21T02:55:13;9.07;;;3.57;;
27893;SDS011;15240;50.812;4.792;2023-08-21T02:57:40;7.97;;;3.73;;
27893;SDS011;15240;50.812;4.792;2023-08-21T03:00:06;8.77;;;3.50;;
27893;SDS011;15240;50.812;4.792;2023-08-21T03:02:33;10.27;;;3.40;;
27893;SDS011;15240;50.812;4.792;2023-08-21T03:04:59;9.23;;;4.00;;
27893;SDS011;15240;50.812;4.792;2023-08-21T03:07:25;9.27;;;3.73;;
27893;SDS011;15240;50.812;4.792;2023-08-21T03:09:51;5.50;;;3.40;;
27893;SDS011;15240;50.812;4.792;2023-08-21T03:12:17;7.83;;;3.70;;
27893;SDS011;15240;50.812;4.792;2023-08-21T03:14:43;7.70;;;3.73;;
27893;SDS011;15240;50.812;4.792;2023-08-21T03:17:09;8.90;;;3.47;;
27893;SDS011;15240;50.812;4.792;2023-08-21T03:19:35;8.67;;;3.50;;
27893;SDS011;15240;50.812;4.792;2023-08-21T03:22:02;10.90;;;3.90;;
27893;SDS011;15240;50.812;4.792;2023-08-21T03:24:28;8.13;;;3.70;;
27893;SDS011;15240;50.812;4.792;2023-08-21T03:26:54;7.43;;;3.10;;
27893;SDS011;15240;50.812;4.792;2023-08-21T03:29:20;10.87;;;3.60;;
27893;SDS011;15240;50.812;4.792;2023-08-21T03:31:48;11.10;;;3.80;;
27893;SDS011;15240;50.812;4.792;2023-08-21T03:34:14;7.77;;;3.40;;
27893;SDS011;15240;50.812;4.792;2023-08-21T03:36:41;10.07;;;3.63;;
27893;SDS011;15240;50.812;4.792;2023-08-21T03:39:07;7.47;;;3.50;;
27893;SDS011;15240;50.812;4.792;2023-08-21T03:41:33;9.87;;;3.73;;
27893;SDS011;15240;50.812;4.792;2023-08-21T03:43:59;8.60;;;3.20;;
27893;SDS011;15240;50.812;4.792;2023-08-21T03:46:25;8.23;;;3.40;;
27893;SDS011;15240;50.812;4.792;2023-08-21T03:48:51;6.43;;;3.43;;
27893;SDS011;15240;50.812;4.792;2023-08-21T03:51:17;7.73;;;3.67;;
27893;SDS011;15240;50.812;4.792;2023-08-21T03:53:43;10.30;;;3.60;;
27893;SDS011;15240;50.812;4.792;2023-08-21T03:56:09;8.77;;;3.73;;
27893;SDS011;15240;50.812;4.792;2023-08-21T03:58:35;6.20;;;3.50;;
27893;SDS011;15240;50.812;4.792;2023-08-21T04:01:01;9.43;;;3.67;;
27893;SDS011;15240;50.812;4.792;2023-08-21T04:03:27;12.03;;;3.77;;
27893;SDS011;15240;50.812;4.792;2023-08-21T04:05:54;9.77;;;3.90;;
27893;SDS011;15240;50.812;4.792;2023-08-21T04:08:21;9.30;;;3.80;;
27893;SDS011;15240;50.812;4.792;2023-08-21T04:10:49;8.57;;;4.20;;
27893;SDS011;15240;50.812;4.792;2023-08-21T04:13:18;9.47;;;4.10;;
27893;SDS011;15240;50.812;4.792;2023-08-21T04:15:44;10.73;;;4.00;;
27893;SDS011;15240;50.812;4.792;2023-08-21T04:18:10;8.83;;;4.10;;
27893;SDS011;15240;50.812;4.792;2023-08-21T04:20:36;10.23;;;4.20;;
27893;SDS011;15240;50.812;4.792;2023-08-21T04:23:03;14.33;;;4.17;;
27893;SDS011;15240;50.812;4.792;2023-08-21T04:25:29;8.90;;;4.37;;
27893;SDS011;15240;50.812;4.792;2023-08-21T04:27:55;7.70;;;3.73;;
27893;SDS011;15240;50.812;4.792;2023-08-21T04:30:21;11.40;;;4.20;;
27893;SDS011;15240;50.812;4.792;2023-08-21T04:32:47;8.17;;;4.00;;
27893;SDS011;15240;50.812;4.792;2023-08-21T04:35:13;8.70;;;3.57;;
27893;SDS011;15240;50.812;4.792;2023-08-21T04:37:42;7.13;;;3.70;;
27893;SDS011;15240;50.812;4.792;2023-08-21T04:40:09;9.20;;;4.17;;
27893;SDS011;15240;50.812;4.792;2023-08-21T04:42:36;8.33;;;3.97;;
27893;SDS011;15240;50.812;4.792;2023-08-21T04:45:02;6.37;;;3.97;;
27893;SDS011;15240;50.812;4.792;2023-08-21T04:47:30;7.60;;;4.30;;
27893;SDS011;15240;50.812;4.792;2023-08-21T04:49:56;7.07;;;3.70;;
27893;SDS011;15240;50.812;4.792;2023-08-21T04:52:23;9.57;;;4.13;;
27893;SDS011;15240;50.812;4.792;2023-08-21T04:54:49;7.37;;;4.20;;
27893;SDS011;15240;50.812;4.792;2023-08-21T04:57:16;9.17;;;4.17;;
27893;SDS011;15240;50.812;4.792;2023-08-21T04:59:42;10.93;;;4.70;;
27893;SDS011;15240;50.812;4.792;2023-08-21T05:02:08;11.50;;;4.97;;
27893;SDS011;15240;50.812;4.792;2023-08-21T05:04:35;10.97;;;4.33;;
27893;SDS011;15240;50.812;4.792;2023-08-21T05:07:02;10.17;;;4.37;;
27893;SDS011;15240;50.812;4.792;2023-08-21T05:09:29;8.40;;;4.40;;
27893;SDS011;15240;50.812;4.792;2023-08-21T05:11:55;10.33;;;4.27;;
27893;SDS011;15240;50.812;4.792;2023-08-21T05:14:21;9.30;;;3.90;;
27893;SDS011;15240;50.812;4.792;2023-08-21T05:16:48;8.67;;;3.80;;
27893;SDS011;15240;50.812;4.792;2023-08-21T05:19:14;9.93;;;4.07;;
27893;SDS011;15240;50.812;4.792;2023-08-21T05:21:40;11.33;;;4.03;;
27893;SDS011;15240;50.812;4.792;2023-08-21T05:24:07;10.07;;;4.20;;
27893;SDS011;15240;50.812;4.792;2023-08-21T05:26:33;11.37;;;4.30;;
27893;SDS011;15240;50.812;4.792;2023-08-21T05:29:01;10.43;;;4.33;;
27893;SDS011;15240;50.812;4.792;2023-08-21T05:31:27;12.13;;;3.90;;
27893;SDS011;15240;50.812;4.792;2023-08-21T05:33:53;11.67;;;4.23;;
27893;SDS011;15240;50.812;4.792;2023-08-21T05:36:19;10.07;;;4.67;;
27893;SDS011;15240;50.812;4.792;2023-08-21T05:38:45;10.70;;;4.67;;
27893;SDS011;15240;50.812;4.792;2023-08-21T05:41:13;10.33;;;4.40;;
27893;SDS011;15240;50.812;4.792;2023-08-21T05:43:39;7.67;;;4.10;;
27893;SDS011;15240;50.812;4.792;2023-08-21T05:46:07;9.77;;;4.30;;
27893;SDS011;15240;50.812;4.792;2023-08-21T05:48:33;8.47;;;3.27;;
27893;SDS011;15240;50.812;4.792;2023-08-21T05:50:59;10.27;;;4.00;;
27893;SDS011;15240;50.812;4.792;2023-08-21T05:53:25;11.23;;;3.83;;
27893;SDS011;15240;50.812;4.792;2023-08-21T05:55:52;13.43;;;4.47;;
27893;SDS011;15240;50.812;4.792;2023-08-21T05:58:18;7.93;;;4.00;;
27893;SDS011;15240;50.812;4.792;2023-08-21T06:00:44;9.73;;;3.87;;
27893;SDS011;15240;50.812;4.792;2023-08-21T06:03:10;7.67;;;4.00;;
27893;SDS011;15240;50.812;4.792;2023-08-21T06:05:37;8.63;;;4.07;;
27893;SDS011;15240;50.812;4.792;2023-08-21T06:08:03;11.07;;;3.70;;
27893;SDS011;15240;50.812;4.792;2023-08-21T06:10:30;11.60;;;4.27;;
27893;SDS011;15240;50.812;4.792;2023-08-21T06:12:56;10.57;;;3.57;;
27893;SDS011;15240;50.812;4.792;2023-08-21T06:15:37;8.18;;;3.13;;
27893;SDS011;15240;50.812;4.792;2023-08-21T06:39:46;10.40;;;2.10;;
27893;SDS011;15240;50.812;4.792;2023-08-21T06:42:13;6.13;;;1.90;;
27893;SDS011;15240;50.812;4.792;2023-08-21T06:44:40;9.15;;;2.03;;
27893;SDS011;15240;50.812;4.792;2023-08-21T06:47:06;6.25;;;1.70;;
27893;SDS011;15240;50.812;4.792;2023-08-21T06:49:43;5.78;;;1.80;;
27893;SDS011;15240;50.812;4.792;2023-08-21T06:52:09;6.78;;;1.80;;
27893;SDS011;15240;50.812;4.792;2023-08-21T07:00:42;6.25;;;1.75;;
27893;SDS011;15240;50.812;4.792;2023-08-21T07:03:08;6.50;;;1.48;;
27893;SDS011;15240;50.812;4.792;2023-08-21T07:08:46;7.28;;;2.10;;
27893;SDS011;15240;50.812;4.792;2023-08-21T07:11:12;7.85;;;1.80;;
27893;SDS011;15240;50.812;4.792;2023-08-21T07:19:27;7.22;;;1.50;;
27893;SDS011;15240;50.812;4.792;2023-08-21T07:21:54;6.20;;;1.67;;
27893;SDS011;15240;50.812;4.792;2023-08-21T07:25:03;5.93;;;1.90;;
27893;SDS011;15240;50.812;4.792;2023-08-21T07:51:39;9.35;;;2.08;;
27893;SDS011;15240;50.812;4.792;2023-08-21T07:54:05;7.88;;;2.00;;
27893;SDS011;15240;50.812;4.792;2023-08-21T07:56:31;5.65;;;1.95;;
27893;SDS011;15240;50.812;4.792;2023-08-21T08:01:45;7.55;;;1.70;;
27893;SDS011;15240;50.812;4.792;2023-08-21T08:04:11;6.47;;;1.48;;
27893;SDS011;15240;50.812;4.792;2023-08-21T08:06:37;6.43;;;1.88;;
27893;SDS011;15240;50.812;4.792;2023-08-21T08:09:03;6.10;;;1.70;;
27893;SDS011;15240;50.812;4.792;2023-08-21T08:11:29;5.60;;;1.60;;
27893;SDS011;15240;50.812;4.792;2023-08-21T08:13:55;5.60;;;1.40;;
27893;SDS011;15240;50.812;4.792;2023-08-21T08:16:21;7.00;;;1.90;;
27893;SDS011;15240;50.812;4.792;2023-08-21T08:18:48;5.70;;;1.40;;
27893;SDS011;15240;50.812;4.792;2023-08-21T08:21:14;5.53;;;1.45;;
27893;SDS011;15240;50.812;4.792;2023-08-21T08:23:40;5.88;;;1.20;;
27893;SDS011;15240;50.812;4.792;2023-08-21T08:26:06;6.55;;;1.60;;
27893;SDS011;15240;50.812;4.792;2023-08-21T08:28:33;9.73;;;1.83;;
27893;SDS011;15240;50.812;4.792;2023-08-21T08:31:00;5.97;;;1.40;;
27893;SDS011;15240;50.812;4.792;2023-08-21T08:33:26;5.78;;;1.33;;
27893;SDS011;15240;50.812;4.792;2023-08-21T08:35:53;4.95;;;1.30;;
27893;SDS011;15240;50.812;4.792;2023-08-21T08:38:19;5.43;;;1.60;;
27893;SDS011;15240;50.812;4.792;2023-08-21T08:40:46;7.53;;;1.60;;
27893;SDS011;15240;50.812;4.792;2023-08-21T08:43:13;6.70;;;1.52;;
27893;SDS011;15240;50.812;4.792;2023-08-21T08:45:43;5.15;;;1.40;;
27893;SDS011;15240;50.812;4.792;2023-08-21T08:48:11;4.43;;;1.27;;
27893;SDS011;15240;50.812;4.792;2023-08-21T08:50:38;4.28;;;1.70;;
27893;SDS011;15240;50.812;4.792;2023-08-21T08:53:04;6.15;;;1.40;;
27893;SDS011;15240;50.812;4.792;2023-08-21T08:55:33;6.68;;;1.70;;
27893;SDS011;15240;50.812;4.792;2023-08-21T08:57:59;6.65;;;1.70;;
27893;SDS011;15240;50.812;4.792;2023-08-21T09:00:25;5.03;;;1.42;;
27893;SDS011;15240;50.812;4.792;2023-08-21T09:02:51;3.17;;;1.20;;
27893;SDS011;15240;50.812;4.792;2023-08-21T09:05:17;6.57;;;1.35;;
27893;SDS011;15240;50.812;4.792;2023-08-21T09:07:43;7.40;;;1.23;;
27893;SDS011;15240;50.812;4.792;2023-08-21T09:10:13;4.93;;;1.27;;
27893;SDS011;15240;50.812;4.792;2023-08-21T09:12:44;4.93;;;1.20;;
27893;SDS011;15240;50.812;4.792;2023-08-21T09:15:11;4.30;;;1.00;;
27893;SDS011;15240;50.812;4.792;2023-08-21T09:17:37;4.18;;;1.20;;
27893;SDS011;15240;50.812;4.792;2023-08-21T09:20:06;3.35;;;0.98;;
27893;SDS011;15240;50.812;4.792;2023-08-21T09:22:33;4.22;;;1.23;;
27893;SDS011;15240;50.812;4.792;2023-08-21T09:25:06;6.00;;;1.40;;
27893;SDS011;15240;50.812;4.792;2023-08-21T09:27:34;8.68;;;1.20;;
27893;SDS011;15240;50.812;4.792;2023-08-21T09:30:03;3.92;;;1.25;;
27893;SDS011;15240;50.812;4.792;2023-08-21T09:32:30;5.95;;;1.27;;
27893;SDS011;15240;50.812;4.792;2023-08-21T09:34:56;3.55;;;1.50;;
27893;SDS011;15240;50.812;4.792;2023-08-21T09:37:27;6.70;;;1.73;;
27893;SDS011;15240;50.812;4.792;2023-08-21T09:40:00;7.35;;;1.52;;
27893;SDS011;15240;50.812;4.792;2023-08-21T09:42:28;4.55;;;1.52;;
27893;SDS011;15240;50.812;4.792;2023-08-21T09:44:54;5.68;;;1.30;;
27893;SDS011;15240;50.812;4.792;2023-08-21T09:47:20;4.93;;;1.13;;
27893;SDS011;15240;50.812;4.792;2023-08-21T09:49:49;7.22;;;1.50;;
27893;SDS011;15240;50.812;4.792;2023-08-21T09:52:15;3.40;;;1.10;;
27893;SDS011;15240;50.812;4.792;2023-08-21T09:54:42;5.13;;;1.20;;
27893;SDS011;15240;50.812;4.792;2023-08-21T09:57:08;6.65;;;1.50;;
27893;SDS011;15240;50.812;4.792;2023-08-21T09:59:35;7.28;;;1.30;;
27893;SDS011;15240;50.812;4.792;2023-08-21T10:02:03;4.47;;;1.20;;
27893;SDS011;15240;50.812;4.792;2023-08-21T10:04:30;5.05;;;1.42;;
27893;SDS011;15240;50.812;4.792;2023-08-21T10:06:57;4.93;;;1.58;;
27893;SDS011;15240;50.812;4.792;2023-08-21T10:09:24;5.35;;;1.50;;
27893;SDS011;15240;50.812;4.792;2023-08-21T10:11:51;4.63;;;1.63;;
27893;SDS011;15240;50.812;4.792;2023-08-21T10:14:18;7.90;;;1.45;;
27893;SDS011;15240;50.812;4.792;2023-08-21T10:16:44;8.55;;;1.85;;
27893;SDS011;15240;50.812;4.792;2023-08-21T10:19:13;4.15;;;1.30;;
27893;SDS011;15240;50.812;4.792;2023-08-21T10:21:40;4.53;;;1.30;;
27893;SDS011;15240;50.812;4.792;2023-08-21T10:24:06;5.00;;;1.10;;
27893;SDS011;15240;50.812;4.792;2023-08-21T10:26:33;5.13;;;1.23;;
27893;SDS011;15240;50.812;4.792;2023-08-21T10:29:03;4.43;;;1.15;;
27893;SDS011;15240;50.812;4.792;2023-08-21T10:34:02;5.80;;;1.30;;
27893;SDS011;15240;50.812;4.792;2023-08-21T10:39:13;4.20;;;1.30;;
27893;SDS011;15240;50.812;4.792;2023-08-21T10:41:40;3.25;;;1.38;;
27893;SDS011;15240;50.812;4.792;2023-08-21T10:44:06;4.75;;;1.30;;
27893;SDS011;15240;50.812;4.792;2023-08-21T10:46:52;4.72;;;1.38;;
27893;SDS011;15240;50.812;4.792;2023-08-21T10:49:18;5.32;;;1.40;;
27893;SDS011;15240;50.812;4.792;2023-08-21T10:51:44;6.45;;;1.48;;
27893;SDS011;15240;50.812;4.792;2023-08-21T10:54:11;6.63;;;1.35;;
27893;SDS011;15240;50.812;4.792;2023-08-21T10:56:37;6.25;;;1.63;;
27893;SDS011;15240;50.812;4.792;2023-08-21T10:59:03;4.97;;;1.30;;
27893;SDS011;15240;50.812;4.792;2023-08-21T11:01:50;5.75;;;1.60;;
27893;SDS011;15240;50.812;4.792;2023-08-21T11:04:16;3.63;;;1.25;;
27893;SDS011;15240;50.812;4.792;2023-08-21T11:06:42;4.22;;;1.17;;
27893;SDS011;15240;50.812;4.792;2023-08-21T11:09:12;6.40;;;1.52;;
27893;SDS011;15240;50.812;4.792;2023-08-21T11:11:39;8.65;;;1.73;;
27893;SDS011;15240;50.812;4.792;2023-08-21T11:14:05;6.97;;;2.13;;
27893;SDS011;15240;50.812;4.792;2023-08-21T11:16:31;5.78;;;1.30;;
27893;SDS011;15240;50.812;4.792;2023-08-21T11:18:57;4.80;;;1.45;;
27893;SDS011;15240;50.812;4.792;2023-08-21T11:21:23;5.68;;;1.63;;
27893;SDS011;15240;50.812;4.792;2023-08-21T11:23:50;4.10;;;1.30;;
27893;SDS011;15240;50.812;4.792;2023-08-21T11:26:16;6.97;;;1.50;;
27893;SDS011;15240;50.812;4.792;2023-08-21T11:28:42;4.57;;;1.45;;
27893;SDS011;15240;50.812;4.792;2023-08-21T11:31:08;4.72;;;1.40;;
27893;SDS011;15240;50.812;4.792;2023-08-21T11:33:37;5.13;;;1.60;;
27893;SDS011;15240;50.812;4.792;2023-08-21T11:36:06;4.30;;;1.58;;
27893;SDS011;15240;50.812;4.792;2023-08-21T11:38:33;6.10;;;1.48;;
27893;SDS011;15240;50.812;4.792;2023-08-21T11:41:00;5.53;;;1.75;;
27893;SDS011;15240;50.812;4.792;2023-08-21T11:43:34;4.68;;;1.92;;
27893;SDS011;15240;50.812;4.792;2023-08-21T11:46:01;6.50;;;1.73;;
27893;SDS011;15240;50.812;4.792;2023-08-21T11:48:28;6.53;;;1.70;;
27893;SDS011;15240;50.812;4.792;2023-08-21T11:50:54;4.35;;;1.58;;
27893;SDS011;15240;50.812;4.792;2023-08-21T11:53:33;5.20;;;1.55;;
27893;SDS011;15240;50.812;4.792;2023-08-21T11:56:00;5.07;;;1.80;;
27893;SDS011;15240;50.812;4.792;2023-08-21T11:58:26;4.78;;;1.60;;
27893;SDS011;15240;50.812;4.792;2023-08-21T12:01:02;4.05;;;1.83;;
27893;SDS011;15240;50.812;4.792;2023-08-21T12:03:28;4.05;;;1.42;;
27893;SDS011;15240;50.812;4.792;2023-08-21T12:05:55;6.93;;;1.50;;
27893;SDS011;15240;50.812;4.792;2023-08-21T12:08:22;3.13;;;1.27;;
27893;SDS011;15240;50.812;4.792;2023-08-21T12:10:51;4.25;;;1.20;;
27893;SDS011;15240;50.812;4.792;2023-08-21T12:13:17;5.28;;;1.40;;
27893;SDS011;15240;50.812;4.792;2023-08-21T12:15:43;4.55;;;1.73;;
27893;SDS011;15240;50.812;4.792;2023-08-21T12:18:10;3.83;;;1.40;;
27893;SDS011;15240;50.812;4.792;2023-08-21T12:20:36;2.47;;;1.10;;
27893;SDS011;15240;50.812;4.792;2023-08-21T12:23:02;4.20;;;1.25;;
27893;SDS011;15240;50.812;4.792;2023-08-21T12:25:29;4.45;;;1.60;;
27893;SDS011;15240;50.812;4.792;2023-08-21T12:27:57;4.30;;;1.75;;
27893;SDS011;15240;50.812;4.792;2023-08-21T12:30:23;4.05;;;1.42;;
27893;SDS011;15240;50.812;4.792;2023-08-21T12:32:49;6.57;;;1.73;;
27893;SDS011;15240;50.812;4.792;2023-08-21T12:35:15;5.47;;;1.60;;
27893;SDS011;15240;50.812;4.792;2023-08-21T12:37:41;6.03;;;1.50;;
27893;SDS011;15240;50.812;4.792;2023-08-21T12:40:07;3.85;;;1.50;;
27893;SDS011;15240;50.812;4.792;2023-08-21T12:42:33;4.75;;;1.63;;
27893;SDS011;15240;50.812;4.792;2023-08-21T12:45:00;6.10;;;1.67;;
27893;SDS011;15240;50.812;4.792;2023-08-21T12:47:26;3.85;;;1.50;;
27893;SDS011;15240;50.812;4.792;2023-08-21T12:49:52;4.55;;;1.80;;
27893;SDS011;15240;50.812;4.792;2023-08-21T12:52:21;4.15;;;1.67;;
27893;SDS011;15240;50.812;4.792;2023-08-21T12:54:47;5.20;;;1.65;;
27893;SDS011;15240;50.812;4.792;2023-08-21T12:57:13;6.05;;;1.60;;
27893;SDS011;15240;50.812;4.792;2023-08-21T12:59:39;4.13;;;1.60;;
27893;SDS011;15240;50.812;4.792;2023-08-21T13:02:05;5.20;;;1.48;;
27893;SDS011;15240;50.812;4.792;2023-08-21T13:04:32;3.95;;;1.45;;
27893;SDS011;15240;50.812;4.792;2023-08-21T13:06:58;4.13;;;1.60;;
27893;SDS011;15240;50.812;4.792;2023-08-21T13:09:25;3.45;;;1.40;;
27893;SDS011;15240;50.812;4.792;2023-08-21T13:11:53;3.20;;;1.40;;
27893;SDS011;15240;50.812;4.792;2023-08-21T13:14:19;4.75;;;1.40;;
27893;SDS011;15240;50.812;4.792;2023-08-21T13:16:45;3.50;;;1.50;;
27893;SDS011;15240;50.812;4.792;2023-08-21T13:19:11;3.78;;;1.65;;
27893;SDS011;15240;50.812;4.792;2023-08-21T13:21:37;4.88;;;1.50;;
27893;SDS011;15240;50.812;4.792;2023-08-21T13:24:04;3.75;;;1.70;;
27893;SDS011;15240;50.812;4.792;2023-08-21T13:26:30;4.75;;;1.33;;
27893;SDS011;15240;50.812;4.792;2023-08-21T13:28:57;4.53;;;1.45;;
27893;SDS011;15240;50.812;4.792;2023-08-21T13:31:24;4.18;;;1.50;;
27893;SDS011;15240;50.812;4.792;2023-08-21T13:33:50;2.58;;;1.20;;
27893;SDS011;15240;50.812;4.792;2023-08-21T13:36:18;4.72;;;1.60;;
27893;SDS011;15240;50.812;4.792;2023-08-21T13:38:45;6.43;;;1.60;;
27893;SDS011;15240;50.812;4.792;2023-08-21T13:41:12;3.88;;;1.70;;
27893;SDS011;15240;50.812;4.792;2023-08-21T13:43:38;4.97;;;1.50;;
27893;SDS011;15240;50.812;4.792;2023-08-21T13:46:04;2.80;;;1.55;;
27893;SDS011;15240;50.812;4.792;2023-08-21T13:48:31;3.05;;;1.50;;
27893;SDS011;15240;50.812;4.792;2023-08-21T13:50:57;3.97;;;1.55;;
27893;SDS011;15240;50.812;4.792;2023-08-21T13:53:24;4.07;;;1.60;;
27893;SDS011;15240;50.812;4.792;2023-08-21T13:55:50;3.60;;;1.60;;
27893;SDS011;15240;50.812;4.792;2023-08-21T13:58:16;4.47;;;1.42;;
27893;SDS011;15240;50.812;4.792;2023-08-21T14:00:43;3.35;;;1.40;;
27893;SDS011;15240;50.812;4.792;2023-08-21T14:03:12;4.10;;;1.60;;
27893;SDS011;15240;50.812;4.792;2023-08-21T14:05:38;7.00;;;1.70;;
27893;SDS011;15240;50.812;4.792;2023-08-21T14:08:04;5.25;;;2.15;;
27893;SDS011;15240;50.812;4.792;2023-08-21T14:10:30;5.13;;;1.80;;
27893;SDS011;15240;50.812;4.792;2023-08-21T14:12:56;3.97;;;1.42;;
27893;SDS011;15240;50.812;4.792;2023-08-21T14:15:22;2.83;;;1.50;;
27893;SDS011;15240;50.812;4.792;2023-08-21T14:17:48;3.78;;;1.60;;
27893;SDS011;15240;50.812;4.792;2023-08-21T14:20:15;5.43;;;1.90;;
27893;SDS011;15240;50.812;4.792;2023-08-21T14:22:41;4.57;;;1.65;;
27893;SDS011;15240;50.812;4.792;2023-08-21T14:25:07;4.78;;;1.70;;
27893;SDS011;15240;50.812;4.792;2023-08-21T14:27:34;5.03;;;1.98;;
27893;SDS011;15240;50.812;4.792;2023-08-21T14:30:00;5.57;;;1.60;;
27893;SDS011;15240;50.812;4.792;2023-08-21T14:32:26;4.95;;;1.50;;
27893;SDS011;15240;50.812;4.792;2023-08-21T14:34:52;6.40;;;1.80;;
27893;SDS011;15240;50.812;4.792;2023-08-21T14:37:19;3.28;;;1.65;;
27893;SDS011;15240;50.812;4.792;2023-08-21T14:39:46;3.50;;;1.70;;
27893;SDS011;15240;50.812;4.792;2023-08-21T14:42:12;3.75;;;1.63;;
27893;SDS011;15240;50.812;4.792;2023-08-21T14:44:46;4.72;;;1.42;;
27893;SDS011;15240;50.812;4.792;2023-08-21T14:47:12;3.88;;;1.40;;
27893;SDS011;15240;50.812;4.792;2023-08-21T14:49:38;5.63;;;2.10;;
27893;SDS011;15240;50.812;4.792;2023-08-21T14:52:07;3.55;;;1.58;;
27893;SDS011;15240;50.812;4.792;2023-08-21T14:54:33;2.92;;;1.30;;
27893;SDS011;15240;50.812;4.792;2023-08-21T14:57:00;7.10;;;1.67;;
27893;SDS011;15240;50.812;4.792;2023-08-21T14:59:27;4.03;;;1.30;;
27893;SDS011;15240;50.812;4.792;2023-08-21T15:01:53;2.83;;;1.13;;
27893;SDS011;15240;50.812;4.792;2023-08-21T15:04:20;6.03;;;1.38;;
27893;SDS011;15240;50.812;4.792;2023-08-21T15:06:46;6.40;;;1.60;;
27893;SDS011;15240;50.812;4.792;2023-08-21T15:09:12;3.08;;;1.30;;
27893;SDS011;15240;50.812;4.792;2023-08-21T15:11:39;3.45;;;1.50;;
27893;SDS011;15240;50.812;4.792;2023-08-21T15:14:09;5.57;;;1.42;;
27893;SDS011;15240;50.812;4.792;2023-08-21T15:16:36;4.15;;;1.52;;
27893;SDS011;15240;50.812;4.792;2023-08-21T15:19:02;4.38;;;1.48;;
27893;SDS011;15240;50.812;4.792;2023-08-21T15:21:32;3.85;;;1.45;;
27893;SDS011;15240;50.812;4.792;2023-08-21T15:23:58;5.75;;;1.50;;
27893;SDS011;15240;50.812;4.792;2023-08-21T15:26:29;5.10;;;1.52;;
27893;SDS011;15240;50.812;4.792;2023-08-21T15:28:55;3.10;;;1.50;;
27893;SDS011;15240;50.812;4.792;2023-08-21T15:31:21;3.17;;;1.13;;
27893;SDS011;15240;50.812;4.792;2023-08-21T15:33:47;2.78;;;1.33;;
27893;SDS011;15240;50.812;4.792;2023-08-21T15:36:14;2.60;;;1.27;;
27893;SDS011;15240;50.812;4.792;2023-08-21T15:38:42;3.17;;;1.48;;
27893;SDS011;15240;50.812;4.792;2023-08-21T15:41:09;3.28;;;1.48;;
27893;SDS011;15240;50.812;4.792;2023-08-21T15:43:35;4.57;;;1.77;;
27893;SDS011;15240;50.812;4.792;2023-08-21T15:46:04;6.63;;;1.50;;
27893;SDS011;15240;50.812;4.792;2023-08-21T15:48:30;3.17;;;1.40;;
27893;SDS011;15240;50.812;4.792;2023-08-21T15:50:56;5.18;;;1.63;;
27893;SDS011;15240;50.812;4.792;2023-08-21T15:53:23;4.30;;;1.50;;
27893;SDS011;15240;50.812;4.792;2023-08-21T15:55:49;6.57;;;1.60;;